createdAt,value
2022-11-04T00:02:03.307Z,99695.28
2022-11-04T00:04:30.038Z,99699.50
2022-11-04T00:06:57.074Z,99687.41
2022-11-04T00:09:28.683Z,99688.28
2022-11-04T00:12:13.699Z,99675.34
2022-11-04T00:14:40.148Z,99685.78
2022-11-04T00:17:19.804Z,99677.94
2022-11-04T00:20:06.533Z,99678.88
2022-11-04T00:22:51.448Z,99676.31
2022-11-04T00:25:36.612Z,99671.13
2022-11-04T00:28:25.626Z,99671.16
2022-11-04T00:30:56.711Z,99676.34
2022-11-04T00:33:26.043Z,99659.97
2022-11-04T00:35:54.860Z,99669.47
2022-11-04T00:38:21.906Z,99661.72
2022-11-04T00:40:48.448Z,99666.06
2022-11-04T00:43:14.903Z,99677.31
2022-11-04T00:45:42.280Z,99688.53
2022-11-04T00:48:09.269Z,99677.31
2022-11-04T00:50:36.089Z,99679.06
2022-11-04T00:53:03.300Z,99683.41
2022-11-04T00:55:29.788Z,99681.66
2022-11-04T00:57:56.248Z,99689.44
2022-11-04T01:00:22.655Z,99684.28
2022-11-04T01:02:49.131Z,99686.81
2022-11-04T01:05:15.935Z,99686.88
2022-11-04T01:07:43.771Z,99698.09
2022-11-04T01:10:10.933Z,99696.34
2022-11-04T01:12:37.339Z,99688.56
2022-11-04T01:15:03.980Z,99690.28
2022-11-04T01:17:30.398Z,99687.75
2022-11-04T01:19:56.811Z,99682.56
2022-11-04T01:22:23.216Z,99674.78
2022-11-04T01:24:49.631Z,99670.44
2022-11-04T01:27:16.028Z,99666.09
2022-11-04T01:29:42.533Z,99663.47
2022-11-04T01:32:08.931Z,99657.44
2022-11-04T01:34:40.628Z,99650.53
2022-11-04T01:37:09.813Z,99655.69
2022-11-04T01:39:36.222Z,99648.75
2022-11-04T01:44:46.827Z,99648.75
2022-11-04T01:47:18.035Z,99645.28
2022-11-04T01:49:48.033Z,99645.28
2022-11-04T01:52:19.909Z,99643.56
2022-11-04T01:54:48.449Z,99639.25
2022-11-04T01:57:25.969Z,99641.00
2022-11-04T01:59:52.612Z,99636.69
2022-11-04T02:02:19.110Z,99636.69
2022-11-04T02:04:45.967Z,99631.50
2022-11-04T02:07:12.406Z,99631.50
2022-11-04T02:09:40.286Z,99637.53
2022-11-04T02:12:25.900Z,99634.97
2022-11-04T02:14:53.081Z,99631.50
2022-11-04T02:17:19.388Z,99637.53
2022-11-04T02:19:51.687Z,99634.94
2022-11-04T02:22:36.835Z,99634.94
2022-11-04T02:25:12.027Z,99631.50
2022-11-04T02:27:43.905Z,99626.34
2022-11-04T02:30:18.754Z,99631.53
2022-11-04T02:33:13.912Z,99624.66
2022-11-04T02:36:02.565Z,99620.34
2022-11-04T02:38:50.826Z,99613.47
2022-11-04T02:41:19.779Z,99618.66
2022-11-04T02:43:49.301Z,99621.28
2022-11-04T02:46:24.828Z,99621.28
2022-11-04T02:48:58.547Z,99614.41
2022-11-04T02:51:33.416Z,99626.47
2022-11-04T02:54:07.725Z,99623.81
2022-11-04T02:56:37.440Z,99619.53
2022-11-04T02:59:07.792Z,99621.28
2022-11-04T03:01:37.322Z,99626.53
2022-11-04T03:04:15.912Z,99629.13
2022-11-04T03:06:44.149Z,99623.03
2022-11-04T03:09:12.008Z,99611.00
2022-11-04T03:11:40.776Z,99612.69
2022-11-04T03:14:30.754Z,99609.28
2022-11-04T03:17:00.894Z,99617.91
2022-11-04T03:19:38.171Z,99604.09
2022-11-04T03:22:07.224Z,99609.28
2022-11-04T03:24:33.711Z,99616.22
2022-11-04T03:27:10.140Z,99617.09
2022-11-04T03:29:40.596Z,99628.28
2022-11-04T03:32:29.646Z,99637.81
2022-11-04T03:34:56.181Z,99632.59
2022-11-04T03:37:22.608Z,99644.75
2022-11-04T03:39:49.111Z,99639.56
2022-11-04T03:42:21.968Z,99656.00
2022-11-04T03:44:55.595Z,99660.28
2022-11-04T03:47:29.844Z,99662.00
2022-11-04T03:50:05.662Z,99670.59
2022-11-04T03:52:32.160Z,99676.63
2022-11-04T03:54:58.629Z,99679.22
2022-11-04T03:57:46.104Z,99686.13
2022-11-04T04:00:13.165Z,99687.84
2022-11-04T04:02:50.579Z,99699.97
2022-11-04T04:05:34.068Z,99693.84
2022-11-04T04:08:20.574Z,99697.25
2022-11-04T04:10:59.027Z,99701.63
2022-11-04T04:13:50.996Z,99695.59
2022-11-04T04:16:23.307Z,99702.44
2022-11-04T04:18:58.539Z,99696.34
2022-11-04T04:21:45.660Z,99688.56
2022-11-04T04:24:31.719Z,99698.09
2022-11-04T04:27:17.219Z,99706.72
2022-11-04T04:29:44.685Z,99698.97
2022-11-04T04:32:11.766Z,99705.97
2022-11-04T04:34:38.225Z,99708.56
2022-11-04T04:37:22.050Z,99708.56
2022-11-04T04:40:30.452Z,99710.31
2022-11-04T04:43:15.710Z,99713.75
2022-11-04T04:45:43.588Z,99716.34
2022-11-04T04:48:12.113Z,99718.94
2022-11-04T04:50:41.449Z,99720.69
2022-11-04T04:53:08.280Z,99722.44
2022-11-04T04:55:40.558Z,99729.38
2022-11-04T04:58:08.706Z,99735.50
2022-11-04T05:00:35.231Z,99737.25
2022-11-04T05:03:01.760Z,99727.72
2022-11-04T05:05:28.177Z,99719.94
2022-11-04T05:07:54.566Z,99720.84
2022-11-04T05:10:21.011Z,99713.06
2022-11-04T05:13:06.043Z,99720.00
2022-11-04T05:15:32.467Z,99718.28
2022-11-04T05:18:01.984Z,99720.94
2022-11-04T05:20:30.217Z,99727.88
2022-11-04T05:22:56.654Z,99715.75
2022-11-04T05:25:23.065Z,99722.69
2022-11-04T05:27:49.452Z,99730.50
2022-11-04T05:30:15.923Z,99731.38
2022-11-04T05:32:42.331Z,99728.78
2022-11-04T05:35:08.876Z,99708.91
2022-11-04T05:37:35.361Z,99728.78
2022-11-04T05:40:01.853Z,99733.09
2022-11-04T05:42:31.096Z,99746.09
2022-11-04T05:44:57.508Z,99753.00
2022-11-04T05:47:24.025Z,99763.38
2022-11-04T05:49:50.437Z,99763.31
2022-11-04T05:52:16.829Z,99763.31
2022-11-04T05:54:43.234Z,99771.94
2022-11-04T05:57:10.585Z,99771.94
2022-11-04T05:59:37.029Z,99767.50
2022-11-04T06:02:03.699Z,99763.16
2022-11-04T06:04:30.248Z,99775.22
2022-11-04T06:06:56.735Z,99778.66
2022-11-04T06:09:38.879Z,99782.09
2022-11-04T06:12:10.241Z,99786.41
2022-11-04T06:14:38.180Z,99793.38
2022-11-04T06:17:07.718Z,99788.13
2022-11-04T06:19:34.376Z,99797.63
2022-11-04T06:22:00.808Z,99820.13
2022-11-04T06:24:27.215Z,99815.84
2022-11-04T06:26:53.699Z,99820.19
2022-11-04T06:29:20.231Z,99840.06
2022-11-04T06:31:46.636Z,99839.22
2022-11-04T06:34:13.141Z,99829.75
2022-11-04T06:36:39.621Z,99817.69
2022-11-04T06:39:06.191Z,99810.78
2022-11-04T06:41:32.671Z,99802.16
2022-11-04T06:43:59.089Z,99811.69
2022-11-04T06:46:36.987Z,99823.78
2022-11-04T06:49:04.403Z,99837.59
2022-11-04T06:51:30.799Z,99839.34
2022-11-04T06:53:57.211Z,99844.53
2022-11-04T06:56:23.688Z,99834.16
2022-11-04T06:58:51.227Z,99829.84
2022-11-04T07:01:22.073Z,99839.34
2022-11-04T07:03:50.425Z,99854.94
2022-11-04T07:06:16.909Z,99858.47
2022-11-04T07:08:43.350Z,99857.59
2022-11-04T07:11:09.750Z,99872.34
2022-11-04T07:13:36.213Z,99887.09
2022-11-04T07:16:06.823Z,99892.28
2022-11-04T07:18:33.473Z,99884.63
2022-11-04T07:20:59.931Z,99869.97
2022-11-04T07:23:26.386Z,99879.56
2022-11-04T07:25:54.279Z,99877.00
2022-11-04T07:28:21.022Z,99877.88
2022-11-04T07:30:47.483Z,99873.59
2022-11-04T07:33:13.899Z,99873.69
2022-11-04T07:35:40.311Z,99875.50
2022-11-04T07:38:07.085Z,99892.81
2022-11-04T07:40:34.525Z,99905.00
2022-11-04T07:43:01.483Z,99892.91
2022-11-04T07:45:29.022Z,99893.03
2022-11-04T07:47:55.443Z,99904.38
2022-11-04T07:50:21.972Z,99902.63
2022-11-04T07:52:50.799Z,99910.44
2022-11-04T07:55:18.579Z,99914.78
2022-11-04T07:57:46.098Z,99912.25
2022-11-04T08:00:15.285Z,99908.91
2022-11-04T08:02:46.643Z,99901.16
2022-11-04T08:05:14.736Z,99890.84
2022-11-04T08:07:41.358Z,99890.84
2022-11-04T08:10:09.968Z,99901.34
2022-11-04T08:12:38.066Z,99899.59
2022-11-04T08:15:05.319Z,99898.00
2022-11-04T08:17:31.746Z,99896.28
2022-11-04T08:19:58.174Z,99896.34
2022-11-04T08:22:27.629Z,99916.31
2022-11-04T08:24:58.176Z,99917.22
2022-11-04T08:27:24.599Z,99915.56
2022-11-04T08:29:51.500Z,99910.41
2022-11-04T08:32:18.807Z,99913.06
2022-11-04T08:34:45.447Z,99904.44
2022-11-04T08:37:16.315Z,99904.47
2022-11-04T08:39:43.014Z,99912.28
2022-11-04T08:42:09.630Z,99921.06
2022-11-04T08:44:36.916Z,99927.16
2022-11-04T08:47:03.357Z,99934.16
2022-11-04T08:49:30.072Z,99932.47
2022-11-04T08:51:59.776Z,99923.00
2022-11-04T08:54:27.164Z,99916.94
2022-11-04T08:56:54.036Z,99911.75
2022-11-04T08:59:20.455Z,99913.63
2022-11-04T09:01:47.026Z,99923.19
2022-11-04T09:04:14.063Z,99929.28
2022-11-04T09:06:43.391Z,99921.53
2022-11-04T09:09:12.544Z,99915.47
2022-11-04T09:11:40.867Z,99918.94
2022-11-04T09:14:08.084Z,99917.28
2022-11-04T09:16:35.596Z,99904.31
2022-11-04T09:19:02.134Z,99908.69
2022-11-04T09:21:28.908Z,99910.31
2022-11-04T09:23:55.895Z,99904.31
2022-11-04T09:26:23.692Z,99893.09
2022-11-04T09:28:55.221Z,99892.28
2022-11-04T09:31:22.196Z,99886.25
2022-11-04T09:33:48.756Z,99879.41
2022-11-04T09:36:15.180Z,99865.59
2022-11-04T09:38:42.545Z,99861.31
2022-11-04T09:41:38.101Z,99858.81
2022-11-04T09:44:15.095Z,99853.63
2022-11-04T09:46:42.188Z,99853.66
2022-11-04T09:49:10.868Z,99855.47
2022-11-04T09:51:55.280Z,99856.34
2022-11-04T09:54:24.906Z,99865.06
2022-11-04T09:56:53.061Z,99872.03
2022-11-04T09:59:25.997Z,99892.00
2022-11-04T10:01:52.378Z,99907.63
2022-11-04T10:04:37.726Z,99908.56
2022-11-04T10:07:11.295Z,99901.72
2022-11-04T10:09:48.392Z,99894.75
2022-11-04T10:13:01.789Z,99891.31
2022-11-04T10:15:49.660Z,99910.38
2022-11-04T10:18:43.457Z,99914.69
2022-11-04T10:21:13.040Z,99923.44
2022-11-04T10:23:57.020Z,99926.03
2022-11-04T10:26:29.472Z,99933.94
2022-11-04T10:29:01.606Z,99938.28
2022-11-04T10:31:28.200Z,99947.00
2022-11-04T10:33:59.559Z,99946.19
2022-11-04T10:36:26.211Z,99942.78
2022-11-04T10:38:55.128Z,99948.06
2022-11-04T10:41:24.596Z,99947.19
2022-11-04T10:43:57.913Z,99951.53
2022-11-04T10:46:27.349Z,99947.19
2022-11-04T10:49:12.500Z,99951.53
2022-11-04T10:51:39.112Z,99948.94
2022-11-04T10:54:08.620Z,99957.63
2022-11-04T10:56:53.077Z,99955.84
2022-11-04T10:59:38.464Z,99952.41
2022-11-04T11:02:05.000Z,99955.75
2022-11-04T11:04:33.447Z,99954.00
2022-11-04T11:07:02.068Z,99955.75
2022-11-04T11:09:54.003Z,99957.47
2022-11-04T11:12:49.973Z,99957.50
2022-11-04T11:15:30.159Z,99964.44
2022-11-04T11:18:13.414Z,99968.75
2022-11-04T11:20:41.088Z,99958.38
2022-11-04T11:23:33.227Z,99960.13
2022-11-04T11:25:59.818Z,99973.13
2022-11-04T11:28:26.909Z,99963.59
2022-11-04T11:30:57.362Z,99975.72
2022-11-04T11:33:28.269Z,99971.38
2022-11-04T11:36:00.880Z,99967.88
2022-11-04T11:38:29.592Z,99970.50
2022-11-04T11:41:24.393Z,99973.94
2022-11-04T11:43:52.811Z,99974.81
2022-11-04T11:46:23.231Z,99979.16
2022-11-04T11:48:54.702Z,99980.88
2022-11-04T11:51:31.689Z,99976.56
2022-11-04T11:54:06.717Z,99979.16
2022-11-04T11:57:11.445Z,99972.19
2022-11-04T12:02:36.439Z,99985.22
2022-11-04T12:11:33.784Z,99995.63
2022-11-04T12:14:05.328Z,99995.56
2022-11-04T12:16:53.245Z,99993.78
2022-11-04T12:19:40.321Z,100000.72
2022-11-04T12:22:28.977Z,100006.75
2022-11-04T12:25:17.913Z,100007.63
2022-11-04T12:27:44.211Z,100009.31
2022-11-04T12:30:17.538Z,100009.31
2022-11-04T12:33:34.530Z,100005.88
2022-11-04T12:36:16.596Z,100008.44
2022-11-04T12:38:57.020Z,100017.06
2022-11-04T12:42:06.256Z,100008.44
2022-11-04T12:44:42.388Z,100009.31
2022-11-04T12:47:38.007Z,100015.25
2022-11-04T12:50:09.459Z,100017.03
2022-11-04T12:53:00.802Z,100013.53
2022-11-04T12:55:45.363Z,100021.38
2022-11-04T12:58:28.348Z,100025.66
2022-11-04T13:00:59.885Z,100023.09
2022-11-04T13:03:34.236Z,100024.91
2022-11-04T13:06:12.222Z,100018.84
2022-11-04T13:08:59.360Z,100020.59
2022-11-04T13:11:52.138Z,100020.66
2022-11-04T13:14:29.259Z,100016.38
2022-11-04T13:17:00.160Z,100023.38
2022-11-04T13:19:33.988Z,100020.00
2022-11-04T13:22:03.752Z,100020.94
2022-11-04T13:24:32.323Z,100015.78
2022-11-04T13:27:02.292Z,100028.09
2022-11-04T13:29:29.614Z,100027.31
2022-11-04T13:32:01.871Z,100017.03
2022-11-04T13:34:46.992Z,100012.00
2022-11-04T13:37:25.243Z,100011.28
2022-11-04T13:40:01.741Z,100018.28
2022-11-04T13:42:37.252Z,100021.00
2022-11-04T13:45:14.034Z,100023.63
2022-11-04T13:47:52.582Z,100025.44
2022-11-04T13:50:40.114Z,100024.75
2022-11-04T13:53:09.424Z,100024.72
2022-11-04T13:55:36.466Z,100033.22
2022-11-04T13:58:05.471Z,100035.84
2022-11-04T14:00:35.620Z,100040.19
2022-11-04T14:03:38.550Z,100047.13
2022-11-04T14:06:08.056Z,100051.34
2022-11-04T14:08:34.579Z,100056.41
2022-11-04T14:11:08.529Z,100055.53
2022-11-04T14:13:35.143Z,100067.53
2022-11-04T14:16:06.025Z,100072.66
2022-11-04T14:18:34.665Z,100079.53
2022-11-04T14:21:12.747Z,100087.34
2022-11-04T14:23:40.809Z,100084.72
2022-11-04T14:26:12.698Z,100085.59
2022-11-04T14:28:41.655Z,100080.38
2022-11-04T14:31:16.904Z,100088.00
2022-11-04T14:33:57.241Z,100092.38
2022-11-04T14:36:23.594Z,100089.72
2022-11-04T14:39:03.783Z,100094.94
2022-11-04T14:41:50.902Z,100089.66
2022-11-04T14:44:21.484Z,100086.13
2022-11-04T14:46:50.113Z,100092.97
2022-11-04T14:49:46.771Z,100096.50
2022-11-04T14:52:26.232Z,100103.38
2022-11-04T14:55:05.343Z,100098.97
2022-11-04T14:57:46.491Z,100111.09
2022-11-04T15:00:35.943Z,100110.22
2022-11-04T15:03:52.047Z,100111.91
2022-11-04T15:06:08.228Z,100106.66
2022-11-04T15:08:37.478Z,100118.81
2022-11-04T15:11:45.546Z,100117.91
2022-11-04T15:14:23.072Z,100117.94
2022-11-04T15:16:56.274Z,100123.09
2022-11-04T15:19:34.275Z,100119.56
2022-11-04T15:22:02.467Z,100127.38
2022-11-04T15:24:29.645Z,100130.78
2022-11-04T15:27:00.595Z,100133.34
2022-11-04T15:29:28.018Z,100130.72
2022-11-04T15:31:56.870Z,100128.06
2022-11-04T15:34:25.316Z,100129.75
2022-11-04T15:36:52.746Z,100136.69
2022-11-04T15:39:25.703Z,100140.06
2022-11-04T15:42:13.697Z,100140.03
2022-11-04T15:44:45.870Z,100144.34
2022-11-04T15:47:18.417Z,100138.22
2022-11-04T15:49:46.000Z,100139.94
2022-11-04T15:52:21.652Z,100134.59
2022-11-04T15:54:50.161Z,100141.47
2022-11-04T15:57:19.057Z,100137.06
2022-11-04T15:59:50.965Z,100143.91
2022-11-04T16:02:29.893Z,100136.91
2022-11-04T16:05:10.636Z,100138.59
2022-11-04T16:07:38.418Z,100143.66
2022-11-04T16:10:23.412Z,100152.25
2022-11-04T16:12:52.323Z,100142.63
2022-11-04T16:15:37.062Z,100152.09
2022-11-04T16:18:04.859Z,100162.38
2022-11-04T16:20:31.993Z,100170.97
2022-11-04T16:23:00.434Z,100165.75
2022-11-04T16:25:30.493Z,100158.72
2022-11-04T16:27:56.956Z,100164.78
2022-11-04T16:30:25.172Z,100170.78
2022-11-04T16:32:56.649Z,100173.31
2022-11-04T16:35:25.786Z,100172.38
2022-11-04T16:37:53.421Z,100166.22
2022-11-04T16:40:22.047Z,100169.63
2022-11-04T16:42:50.420Z,100175.63
2022-11-04T16:45:28.040Z,100178.19
2022-11-04T16:47:54.726Z,100183.31
2022-11-04T16:50:22.043Z,100191.91
2022-11-04T16:52:48.461Z,100188.38
2022-11-04T16:55:15.641Z,100189.19
2022-11-04T16:57:42.235Z,100192.56
2022-11-04T17:00:22.522Z,100195.13
2022-11-04T17:02:50.151Z,100199.44
2022-11-04T17:05:17.160Z,100208.09
2022-11-04T17:08:04.910Z,100210.63
2022-11-04T17:10:30.501Z,100219.28
2022-11-04T17:12:57.052Z,100225.34
2022-11-04T17:15:23.524Z,100218.41
2022-11-04T17:17:50.002Z,100226.19
2022-11-04T17:20:18.166Z,100225.19
2022-11-04T17:22:45.043Z,100229.63
2022-11-04T17:25:20.062Z,100224.44
2022-11-04T17:27:46.902Z,100229.63
2022-11-04T17:30:14.329Z,100239.91
2022-11-04T17:32:41.642Z,100233.81
2022-11-04T17:35:09.347Z,100238.97
2022-11-04T17:37:35.826Z,100244.13
2022-11-04T17:40:02.283Z,100242.38
2022-11-04T17:42:47.182Z,100243.22
2022-11-04T17:45:13.644Z,100251.00
2022-11-04T17:47:40.114Z,100251.84
2022-11-04T17:50:07.949Z,100256.13
2022-11-04T17:52:35.716Z,100260.44
2022-11-04T17:55:02.234Z,100262.09
2022-11-04T17:57:28.649Z,100261.22
2022-11-04T17:59:55.069Z,100272.50
2022-11-04T18:02:21.657Z,100264.63
2022-11-04T18:04:48.196Z,100266.34
2022-11-04T18:07:14.609Z,100268.91
2022-11-04T18:09:42.848Z,100270.63
2022-11-04T18:12:28.995Z,100263.69
2022-11-04T18:14:57.449Z,100264.56
2022-11-04T18:17:24.917Z,100268.00
2022-11-04T18:19:52.216Z,100261.97
2022-11-04T18:22:18.641Z,100263.69
2022-11-04T18:24:47.696Z,100266.22
2022-11-04T18:27:14.965Z,100265.38
2022-11-04T18:29:41.403Z,100275.69
2022-11-04T18:32:07.838Z,100274.91
2022-11-04T18:34:34.617Z,100275.78
2022-11-04T18:37:01.372Z,100280.13
2022-11-04T18:39:27.787Z,100283.59
2022-11-04T18:41:54.200Z,100286.31
2022-11-04T18:44:22.044Z,100282.88
2022-11-04T18:46:49.469Z,100281.19
2022-11-04T18:49:16.933Z,100281.19
2022-11-04T18:51:44.010Z,100289.84
2022-11-04T18:54:11.118Z,100283.75
2022-11-04T18:56:37.624Z,100286.38
2022-11-04T18:59:04.644Z,100275.13
2022-11-04T19:01:33.506Z,100281.16
2022-11-04T19:04:01.421Z,100271.63
2022-11-04T19:06:30.843Z,100278.56
2022-11-04T19:09:04.985Z,100278.56
2022-11-04T19:11:42.786Z,100278.56
2022-11-04T19:14:13.560Z,100280.19
2022-11-04T19:16:41.481Z,100286.22
2022-11-04T19:19:09.214Z,100285.31
2022-11-04T19:21:35.803Z,100292.31
2022-11-04T19:24:02.422Z,100288.94
2022-11-04T19:26:31.730Z,100292.41
2022-11-04T19:29:00.971Z,100300.16
2022-11-04T19:31:29.737Z,100307.09
2022-11-04T19:34:02.971Z,100297.44
2022-11-04T19:36:29.433Z,100307.88
2022-11-04T19:38:55.989Z,100304.41
2022-11-04T19:41:42.090Z,100311.09
2022-11-04T19:44:11.102Z,100309.44
2022-11-04T19:46:37.622Z,100301.69
2022-11-04T19:49:04.584Z,100310.34
2022-11-04T19:51:32.271Z,100305.91
2022-11-04T19:53:59.398Z,100324.13
2022-11-04T19:56:26.097Z,100317.16
2022-11-04T19:58:52.501Z,100324.06
2022-11-04T20:01:19.470Z,100322.28
2022-11-04T20:03:45.979Z,100317.09
2022-11-04T20:06:14.300Z,100329.19
2022-11-04T20:08:42.881Z,100330.94
2022-11-04T20:11:09.731Z,100341.31
2022-11-04T20:13:46.442Z,100344.78
2022-11-04T20:16:20.221Z,100338.72
2022-11-04T20:18:48.888Z,100346.50
2022-11-04T20:21:15.494Z,100349.94
2022-11-04T20:23:41.938Z,100359.47
2022-11-04T20:26:16.238Z,100359.47
2022-11-04T20:28:45.704Z,100361.25
2022-11-04T20:31:19.048Z,100355.16
2022-11-04T20:33:49.998Z,100362.03
2022-11-04T20:36:18.948Z,100366.34
2022-11-04T20:38:47.344Z,100367.16
2022-11-04T20:41:18.602Z,100368.09
2022-11-04T20:43:46.652Z,100373.28
2022-11-04T20:46:18.451Z,100380.03
2022-11-04T20:48:44.955Z,100373.28
2022-11-04T20:51:13.608Z,100382.84
2022-11-04T20:53:40.476Z,100386.16
2022-11-04T20:56:09.417Z,100392.38
2022-11-04T20:58:37.921Z,100397.28
2022-11-04T21:01:06.914Z,100396.66
2022-11-04T21:03:33.481Z,100394.06
2022-11-04T21:06:00.950Z,100401.75
2022-11-04T21:08:33.606Z,100407.91
2022-11-04T21:11:01.548Z,100414.00
2022-11-04T21:13:27.979Z,100414.00
2022-11-04T21:15:57.787Z,100414.84
2022-11-04T21:18:25.631Z,100413.94
2022-11-04T21:20:52.130Z,100421.63
2022-11-04T21:23:22.919Z,100425.94
2022-11-04T21:26:03.656Z,100431.22
2022-11-04T21:28:30.065Z,100424.22
2022-11-04T21:31:02.181Z,100420.00
2022-11-04T21:33:28.597Z,100425.28
2022-11-04T21:35:55.054Z,100423.50
2022-11-04T21:38:23.337Z,100434.81
2022-11-04T21:40:49.757Z,100434.69
2022-11-04T21:43:16.258Z,100433.81
2022-11-04T21:45:42.750Z,100432.84
2022-11-04T21:48:09.502Z,100433.81
2022-11-04T21:50:36.253Z,100440.63
2022-11-04T21:53:02.731Z,100441.59
2022-11-04T21:55:29.150Z,100444.28
2022-11-04T21:57:55.568Z,100442.50
2022-11-04T22:00:23.046Z,100440.84
2022-11-04T22:02:53.037Z,100441.69
2022-11-04T22:05:19.587Z,100447.72
2022-11-04T22:08:04.490Z,100451.22
2022-11-04T22:10:30.916Z,100447.72
2022-11-04T22:12:57.317Z,100452.00
2022-11-04T22:15:43.365Z,100453.72
2022-11-04T22:18:10.766Z,100443.41
2022-11-04T22:20:38.743Z,100453.66
2022-11-04T22:23:05.138Z,100457.16
2022-11-04T22:25:31.598Z,100450.31
2022-11-04T22:27:58.037Z,100458.09
2022-11-04T22:30:24.952Z,100457.25
2022-11-04T22:32:52.119Z,100458.09
2022-11-04T22:35:18.541Z,100459.75
2022-11-04T22:37:44.941Z,100458.72
2022-11-04T22:40:11.779Z,100458.78
2022-11-04T22:42:38.209Z,100457.91
2022-11-04T22:45:05.102Z,100462.19
2022-11-04T22:47:31.602Z,100461.31
2022-11-04T22:49:58.111Z,100468.16
2022-11-04T22:52:24.532Z,100470.66
2022-11-04T22:54:50.952Z,100468.91
2022-11-04T22:57:17.659Z,100475.81
2022-11-04T22:59:44.120Z,100472.28
2022-11-04T23:02:10.906Z,100477.31
2022-11-04T23:04:40.268Z,100483.41
2022-11-04T23:07:07.076Z,100483.34
2022-11-04T23:09:34.042Z,100482.44
2022-11-04T23:12:19.218Z,100484.16
2022-11-04T23:14:45.606Z,100488.34
2022-11-04T23:17:38.633Z,100490.09
2022-11-04T23:20:08.542Z,100493.56
2022-11-04T23:22:53.478Z,100484.81
2022-11-04T23:25:20.297Z,100493.53
2022-11-04T23:28:07.366Z,100498.72
2022-11-04T23:30:45.864Z,100491.75
2022-11-04T23:33:14.619Z,100489.03
2022-11-04T23:36:05.323Z,100493.41
2022-11-04T23:38:32.180Z,100495.97
2022-11-04T23:41:19.761Z,100499.41
2022-11-04T23:43:46.248Z,100496.81
2022-11-04T23:46:31.284Z,100501.06
2022-11-04T23:49:16.336Z,100500.09
2022-11-04T23:52:01.350Z,100504.38
2022-11-04T23:54:46.438Z,100507.59
2022-11-04T23:57:33.530Z,100516.22
